sensor_id;sensor_type;location;lat;lon;timestamp;pressure;altitude;pressure_sealevel;temperature;humidity
25084;BME280;13075;55.682;37.564;2023-04-29T00:01:06;99261.88;;;10.34;100.00
25084;BME280;13075;55.682;37.564;2023-04-29T00:03:31;99272.56;;;10.54;100.00
25084;BME280;13075;55.682;37.564;2023-04-29T00:05:57;99277.50;;;10.57;100.00
25084;BME280;13075;55.682;37.564;2023-04-29T00:08:23;99271.13;;;10.45;100.00
25084;BME280;13075;55.682;37.564;2023-04-29T00:10:49;99275.84;;;10.56;100.00
25084;BME280;13075;55.682;37.564;2023-04-29T00:13:14;99276.06;;;10.68;100.00
25084;BME280;13075;55.682;37.564;2023-04-29T00:15:40;99262.91;;;10.27;100.00
25084;BME280;13075;55.682;37.564;2023-04-29T00:18:05;99261.03;;;10.27;100.00
25084;BME280;13075;55.682;37.564;2023-04-29T00:20:31;99269.88;;;10.60;100.00
25084;BME280;13075;55.682;37.564;2023-04-29T00:22:57;99261.03;;;10.27;100.00
25084;BME280;13075;55.682;37.564;2023-04-29T00:25:22;99255.25;;;10.17;100.00
25084;BME280;13075;55.682;37.564;2023-04-29T00:27:48;99255.50;;;10.29;100.00
25084;BME280;13075;55.682;37.564;2023-04-29T00:30:13;99253.41;;;10.18;100.00
25084;BME280;13075;55.682;37.564;2023-04-29T00:32:39;99245.38;;;10.18;100.00
25084;BME280;13075;55.682;37.564;2023-04-29T00:35:05;99250.75;;;10.31;100.00
25084;BME280;13075;55.682;37.564;2023-04-29T00:37:30;99250.75;;;10.24;100.00
25084;BME280;13075;55.682;37.564;2023-04-29T00:39:56;99253.22;;;10.19;100.00
25084;BME280;13075;55.682;37.564;2023-04-29T00:42:22;99245.19;;;10.45;100.00
25084;BME280;13075;55.682;37.564;2023-04-29T00:44:48;99238.00;;;10.26;100.00
25084;BME280;13075;55.682;37.564;2023-04-29T00:47:13;99243.34;;;10.26;100.00
25084;BME280;13075;55.682;37.564;2023-04-29T00:49:39;99233.25;;;10.09;100.00
25084;BME280;13075;55.682;37.564;2023-04-29T00:52:04;99232.44;;;10.21;100.00
25084;BME280;13075;55.682;37.564;2023-04-29T00:54:33;99241.06;;;10.30;100.00
25084;BME280;13075;55.682;37.564;2023-04-29T00:57:00;99238.56;;;10.02;100.00
25084;BME280;13075;55.682;37.564;2023-04-29T00:59:25;99233.69;;;10.58;100.00
25084;BME280;13075;55.682;37.564;2023-04-29T01:01:58;99230.19;;;10.18;100.00
25084;BME280;13075;55.682;37.564;2023-04-29T01:04:24;99229.75;;;10.08;100.00
25084;BME280;13075;55.682;37.564;2023-04-29T01:11:48;99237.50;;;9.77;100.00
25084;BME280;13075;55.682;37.564;2023-04-29T01:14:17;99234.66;;;10.04;100.00
25084;BME280;13075;55.682;37.564;2023-04-29T01:16:53;99238.53;;;9.89;100.00
25084;BME280;13075;55.682;37.564;2023-04-29T01:21:56;99248.84;;;10.05;100.00
25084;BME280;13075;55.682;37.564;2023-04-29T01:24:21;99249.00;;;9.77;100.00
25084;BME280;13075;55.682;37.564;2023-04-29T01:26:53;99244.59;;;10.37;100.00
25084;BME280;13075;55.682;37.564;2023-04-29T01:29:43;99247.38;;;9.83;100.00
25084;BME280;13075;55.682;37.564;2023-04-29T01:35:03;99231.56;;;10.08;100.00
25084;BME280;13075;55.682;37.564;2023-04-29T01:42:40;99228.91;;;9.88;100.00
25084;BME280;13075;55.682;37.564;2023-04-29T01:45:16;99234.28;;;9.34;100.00
25084;BME280;13075;55.682;37.564;2023-04-29T01:47:43;99235.22;;;9.74;100.00
25084;BME280;13075;55.682;37.564;2023-04-29T01:50:10;99231.38;;;9.96;100.00
25084;BME280;13075;55.682;37.564;2023-04-29T01:52:37;99227.25;;;10.00;100.00
25084;BME280;13075;55.682;37.564;2023-04-29T01:55:02;99238.38;;;10.10;100.00
25084;BME280;13075;55.682;37.564;2023-04-29T01:57:38;99238.19;;;10.18;100.00
25084;BME280;13075;55.682;37.564;2023-04-29T02:00:09;99239.44;;;10.22;100.00
25084;BME280;13075;55.682;37.564;2023-04-29T02:02:40;99247.00;;;10.06;100.00
25084;BME280;13075;55.682;37.564;2023-04-29T02:05:23;99250.28;;;10.01;100.00
25084;BME280;13075;55.682;37.564;2023-04-29T02:07:55;99250.06;;;10.09;100.00
25084;BME280;13075;55.682;37.564;2023-04-29T02:10:21;99245.94;;;9.87;100.00
25084;BME280;13075;55.682;37.564;2023-04-29T02:12:50;99248.41;;;10.01;100.00
25084;BME280;13075;55.682;37.564;2023-04-29T02:15:17;99255.41;;;9.89;100.00
25084;BME280;13075;55.682;37.564;2023-04-29T02:17:44;99244.06;;;9.68;100.00
25084;BME280;13075;55.682;37.564;2023-04-29T02:20:10;99246.91;;;9.66;100.00
25084;BME280;13075;55.682;37.564;2023-04-29T02:22:36;99250.59;;;9.59;100.00
25084;BME280;13075;55.682;37.564;2023-04-29T02:25:01;99248.75;;;9.66;100.00
25084;BME280;13075;55.682;37.564;2023-04-29T02:27:27;99244.94;;;9.94;100.00
25084;BME280;13075;55.682;37.564;2023-04-29T02:29:52;99250.44;;;9.86;100.00
25084;BME280;13075;55.682;37.564;2023-04-29T02:32:18;99253.13;;;9.86;100.00
25084;BME280;13075;55.682;37.564;2023-04-29T02:34:45;99261.75;;;9.82;100.00
25084;BME280;13075;55.682;37.564;2023-04-29T02:37:10;99258.09;;;10.02;100.00
25084;BME280;13075;55.682;37.564;2023-04-29T02:39:36;99257.44;;;9.87;100.00
25084;BME280;13075;55.682;37.564;2023-04-29T02:42:01;99267.38;;;10.20;100.00
25084;BME280;13075;55.682;37.564;2023-04-29T02:44:27;99273.38;;;10.28;100.00
25084;BME280;13075;55.682;37.564;2023-04-29T02:46:53;99270.72;;;10.35;100.00
25084;BME280;13075;55.682;37.564;2023-04-29T02:49:18;99286.97;;;10.27;100.00
25084;BME280;13075;55.682;37.564;2023-04-29T02:51:44;99289.28;;;9.82;100.00
25084;BME280;13075;55.682;37.564;2023-04-29T02:54:09;99292.16;;;9.81;100.00
25084;BME280;13075;55.682;37.564;2023-04-29T02:56:35;99290.78;;;10.04;100.00
25084;BME280;13075;55.682;37.564;2023-04-29T02:59:01;99296.63;;;9.61;100.00
25084;BME280;13075;55.682;37.564;2023-04-29T03:01:26;99302.50;;;10.03;100.00
25084;BME280;13075;55.682;37.564;2023-04-29T03:03:53;99313.97;;;9.84;100.00
25084;BME280;13075;55.682;37.564;2023-04-29T03:06:19;99315.50;;;10.13;100.00
25084;BME280;13075;55.682;37.564;2023-04-29T03:08:44;99314.41;;;9.94;100.00
25084;BME280;13075;55.682;37.564;2023-04-29T03:11:10;99327.97;;;9.99;100.00
25084;BME280;13075;55.682;37.564;2023-04-29T03:13:36;99323.47;;;10.00;100.00
25084;BME280;13075;55.682;37.564;2023-04-29T03:16:04;99332.31;;;10.00;100.00
25084;BME280;13075;55.682;37.564;2023-04-29T03:18:31;99337.25;;;10.03;100.00
25084;BME280;13075;55.682;37.564;2023-04-29T03:20:56;99334.91;;;10.94;100.00
25084;BME280;13075;55.682;37.564;2023-04-29T03:23:22;99328.38;;;12.92;100.00
25084;BME280;13075;55.682;37.564;2023-04-29T03:25:47;99340.09;;;12.73;100.00
25084;BME280;13075;55.682;37.564;2023-04-29T03:28:14;99351.16;;;12.27;100.00
25084;BME280;13075;55.682;37.564;2023-04-29T03:30:40;99350.16;;;12.52;100.00
25084;BME280;13075;55.682;37.564;2023-04-29T03:33:05;99360.06;;;12.52;100.00
25084;BME280;13075;55.682;37.564;2023-04-29T03:35:31;99359.81;;;12.29;100.00
25084;BME280;13075;55.682;37.564;2023-04-29T03:38:25;99368.09;;;12.59;100.00
25084;BME280;13075;55.682;37.564;2023-04-29T03:40:53;99365.56;;;12.32;100.00
25084;BME280;13075;55.682;37.564;2023-04-29T03:43:19;99373.00;;;11.93;100.00
25084;BME280;13075;55.682;37.564;2023-04-29T03:45:44;99374.31;;;11.64;100.00
25084;BME280;13075;55.682;37.564;2023-04-29T03:48:11;99378.94;;;12.01;100.00
25084;BME280;13075;55.682;37.564;2023-04-29T03:50:38;99373.50;;;12.14;100.00
25084;BME280;13075;55.682;37.564;2023-04-29T03:53:03;99378.28;;;12.06;100.00
25084;BME280;13075;55.682;37.564;2023-04-29T03:55:29;99379.75;;;11.18;100.00
25084;BME280;13075;55.682;37.564;2023-04-29T03:57:55;99380.88;;;11.74;100.00
25084;BME280;13075;55.682;37.564;2023-04-29T04:00:21;99377.56;;;11.85;100.00
25084;BME280;13075;55.682;37.564;2023-04-29T04:02:52;99385.31;;;11.23;100.00
25084;BME280;13075;55.682;37.564;2023-04-29T04:05:17;99386.44;;;11.79;100.00
25084;BME280;13075;55.682;37.564;2023-04-29T04:07:49;99380.69;;;11.76;100.00
25084;BME280;13075;55.682;37.564;2023-04-29T04:10:47;99387.16;;;12.13;100.00
25084;BME280;13075;55.682;37.564;2023-04-29T04:13:28;99395.44;;;12.05;100.00
25084;BME280;13075;55.682;37.564;2023-04-29T04:15:53;99380.13;;;12.12;100.00
25084;BME280;13075;55.682;37.564;2023-04-29T04:18:19;99388.78;;;12.14;100.00
25084;BME280;13075;55.682;37.564;2023-04-29T04:20:44;99384.91;;;12.03;100.00
25084;BME280;13075;55.682;37.564;2023-04-29T04:23:10;99392.03;;;12.22;100.00
25084;BME280;13075;55.682;37.564;2023-04-29T04:25:35;99392.00;;;12.29;100.00
25084;BME280;13075;55.682;37.564;2023-04-29T04:28:21;99392.22;;;11.83;100.00
25084;BME280;13075;55.682;37.564;2023-04-29T04:31:00;99389.22;;;11.27;100.00
25084;BME280;13075;55.682;37.564;2023-04-29T04:33:25;99390.63;;;11.56;100.00
25084;BME280;13075;55.682;37.564;2023-04-29T04:35:51;99384.75;;;11.92;100.00
25084;BME280;13075;55.682;37.564;2023-04-29T04:38:17;99394.50;;;11.73;100.00
25084;BME280;13075;55.682;37.564;2023-04-29T04:40:43;99390.22;;;12.16;100.00
25084;BME280;13075;55.682;37.564;2023-04-29T04:43:21;99380.28;;;11.72;100.00
25084;BME280;13075;55.682;37.564;2023-04-29T04:45:47;99381.56;;;12.14;100.00
25084;BME280;13075;55.682;37.564;2023-04-29T04:48:13;99367.75;;;11.53;100.00
25084;BME280;13075;55.682;37.564;2023-04-29T04:50:38;99366.00;;;12.29;100.00
25084;BME280;13075;55.682;37.564;2023-04-29T04:53:04;99382.44;;;12.02;100.00
25084;BME280;13075;55.682;37.564;2023-04-29T04:55:59;99383.88;;;12.42;100.00
25084;BME280;13075;55.682;37.564;2023-04-29T04:58:25;99390.47;;;12.46;100.00
25084;BME280;13075;55.682;37.564;2023-04-29T05:00:51;99397.34;;;12.67;100.00
25084;BME280;13075;55.682;37.564;2023-04-29T05:03:19;99388.97;;;13.13;100.00
25084;BME280;13075;55.682;37.564;2023-04-29T05:05:45;99395.44;;;12.42;100.00
25084;BME280;13075;55.682;37.564;2023-04-29T05:08:10;99381.97;;;13.05;100.00
25084;BME280;13075;55.682;37.564;2023-04-29T05:10:41;99396.84;;;11.23;100.00
25084;BME280;13075;55.682;37.564;2023-04-29T05:13:07;99400.34;;;10.72;100.00
25084;BME280;13075;55.682;37.564;2023-04-29T05:15:33;99400.56;;;10.77;100.00
25084;BME280;13075;55.682;37.564;2023-04-29T05:18:00;99388.97;;;10.43;100.00
25084;BME280;13075;55.682;37.564;2023-04-29T05:20:26;99389.34;;;10.27;100.00
25084;BME280;13075;55.682;37.564;2023-04-29T05:22:53;99403.56;;;10.28;100.00
25084;BME280;13075;55.682;37.564;2023-04-29T05:25:19;99402.41;;;10.02;100.00
25084;BME280;13075;55.682;37.564;2023-04-29T05:27:44;99386.69;;;10.21;100.00
25084;BME280;13075;55.682;37.564;2023-04-29T05:30:14;99384.34;;;10.11;100.00
25084;BME280;13075;55.682;37.564;2023-04-29T05:32:40;99393.47;;;10.30;100.00
25084;BME280;13075;55.682;37.564;2023-04-29T05:35:08;99398.91;;;10.62;100.00
25084;BME280;13075;55.682;37.564;2023-04-29T05:37:34;99395.16;;;9.90;100.00
25084;BME280;13075;55.682;37.564;2023-04-29T05:40:22;99401.53;;;10.43;100.00
25084;BME280;13075;55.682;37.564;2023-04-29T05:42:49;99409.59;;;10.49;100.00
25084;BME280;13075;55.682;37.564;2023-04-29T05:45:14;99419.50;;;10.88;100.00
25084;BME280;13075;55.682;37.564;2023-04-29T05:47:40;99414.16;;;10.88;100.00
25084;BME280;13075;55.682;37.564;2023-04-29T05:50:06;99422.97;;;11.41;100.00
25084;BME280;13075;55.682;37.564;2023-04-29T05:52:31;99422.97;;;10.62;100.00
25084;BME280;13075;55.682;37.564;2023-04-29T05:54:57;99412.69;;;11.38;100.00
25084;BME280;13075;55.682;37.564;2023-04-29T05:57:22;99424.41;;;11.57;100.00
25084;BME280;13075;55.682;37.564;2023-04-29T05:59:48;99432.50;;;11.11;100.00
25084;BME280;13075;55.682;37.564;2023-04-29T06:02:14;99431.59;;;11.56;100.00
25084;BME280;13075;55.682;37.564;2023-04-29T06:04:40;99441.94;;;11.33;100.00
25084;BME280;13075;55.682;37.564;2023-04-29T06:07:25;99435.78;;;11.46;100.00
25084;BME280;13075;55.682;37.564;2023-04-29T06:10:09;99443.41;;;11.42;100.00
25084;BME280;13075;55.682;37.564;2023-04-29T06:12:35;99451.00;;;11.25;100.00
25084;BME280;13075;55.682;37.564;2023-04-29T06:15:01;99442.13;;;11.64;100.00
25084;BME280;13075;55.682;37.564;2023-04-29T06:17:26;99443.50;;;12.44;100.00
25084;BME280;13075;55.682;37.564;2023-04-29T06:19:54;99457.34;;;11.97;100.00
25084;BME280;13075;55.682;37.564;2023-04-29T06:22:22;99458.69;;;12.19;100.00
25084;BME280;13075;55.682;37.564;2023-04-29T06:24:50;99468.94;;;12.35;100.00
25084;BME280;13075;55.682;37.564;2023-04-29T06:27:24;99474.53;;;12.33;100.00
25084;BME280;13075;55.682;37.564;2023-04-29T06:29:50;99466.16;;;12.04;100.00
25084;BME280;13075;55.682;37.564;2023-04-29T06:32:15;99478.28;;;12.19;100.00
25084;BME280;13075;55.682;37.564;2023-04-29T06:34:42;99472.31;;;12.11;100.00
25084;BME280;13075;55.682;37.564;2023-04-29T06:37:27;99477.66;;;12.68;100.00
25084;BME280;13075;55.682;37.564;2023-04-29T06:40:16;99479.50;;;12.68;100.00
25084;BME280;13075;55.682;37.564;2023-04-29T06:43:01;99483.03;;;13.31;100.00
25084;BME280;13075;55.682;37.564;2023-04-29T06:45:47;99473.44;;;13.84;100.00
25084;BME280;13075;55.682;37.564;2023-04-29T06:48:21;99478.41;;;14.23;100.00
25084;BME280;13075;55.682;37.564;2023-04-29T06:53:16;99464.13;;;14.41;92.80
25084;BME280;13075;55.682;37.564;2023-04-29T06:55:41;99481.72;;;14.73;90.30
25084;BME280;13075;55.682;37.564;2023-04-29T06:58:07;99499.88;;;13.69;94.98
25084;BME280;13075;55.682;37.564;2023-04-29T07:00:32;99489.34;;;13.18;98.10
25084;BME280;13075;55.682;37.564;2023-04-29T07:02:58;99486.00;;;13.72;100.00
25084;BME280;13075;55.682;37.564;2023-04-29T07:05:23;99498.44;;;13.66;100.00
25084;BME280;13075;55.682;37.564;2023-04-29T07:07:49;99492.72;;;13.99;100.00
25084;BME280;13075;55.682;37.564;2023-04-29T07:10:16;99496.72;;;15.11;99.75
25084;BME280;13075;55.682;37.564;2023-04-29T07:12:42;99497.50;;;16.73;82.85
25084;BME280;13075;55.682;37.564;2023-04-29T07:15:07;99499.00;;;17.09;69.96
25084;BME280;13075;55.682;37.564;2023-04-29T07:17:33;99504.41;;;17.09;74.58
25084;BME280;13075;55.682;37.564;2023-04-29T07:19:58;99504.75;;;16.85;71.12
25084;BME280;13075;55.682;37.564;2023-04-29T07:22:24;99510.91;;;15.94;75.97
25084;BME280;13075;55.682;37.564;2023-04-29T07:24:53;99510.00;;;15.77;77.49
25084;BME280;13075;55.682;37.564;2023-04-29T07:27:19;99520.66;;;15.83;79.05
25084;BME280;13075;55.682;37.564;2023-04-29T07:29:45;99517.81;;;16.25;83.57
25084;BME280;13075;55.682;37.564;2023-04-29T07:32:10;99522.38;;;16.87;76.63
25084;BME280;13075;55.682;37.564;2023-04-29T07:34:37;99518.09;;;17.03;74.10
25084;BME280;13075;55.682;37.564;2023-04-29T07:37:02;99528.47;;;16.31;75.08
25084;BME280;13075;55.682;37.564;2023-04-29T07:39:28;99519.56;;;16.31;78.21
25084;BME280;13075;55.682;37.564;2023-04-29T07:41:58;99531.22;;;17.27;71.64
25084;BME280;13075;55.682;37.564;2023-04-29T07:44:24;99525.50;;;20.11;63.10
25084;BME280;13075;55.682;37.564;2023-04-29T07:46:49;99521.28;;;20.87;59.37
25084;BME280;13075;55.682;37.564;2023-04-29T07:49:15;99526.50;;;20.36;56.05
25084;BME280;13075;55.682;37.564;2023-04-29T07:51:41;99533.13;;;20.14;56.03
25084;BME280;13075;55.682;37.564;2023-04-29T07:54:09;99529.16;;;20.88;53.98
25084;BME280;13075;55.682;37.564;2023-04-29T07:56:35;99523.50;;;24.16;47.27
25084;BME280;13075;55.682;37.564;2023-04-29T07:59:00;99527.94;;;24.07;41.85
25084;BME280;13075;55.682;37.564;2023-04-29T08:01:26;99521.78;;;28.63;36.96
25084;BME280;13075;55.682;37.564;2023-04-29T08:03:52;99522.03;;;27.25;36.63
25084;BME280;13075;55.682;37.564;2023-04-29T08:06:20;99520.75;;;31.35;31.76
25084;BME280;13075;55.682;37.564;2023-04-29T08:08:49;99525.25;;;32.14;30.05
25084;BME280;13075;55.682;37.564;2023-04-29T08:11:17;99535.22;;;29.89;31.52
25084;BME280;13075;55.682;37.564;2023-04-29T08:13:43;99538.94;;;25.58;35.72
25084;BME280;13075;55.682;37.564;2023-04-29T08:16:09;99532.34;;;29.86;32.29
25084;BME280;13075;55.682;37.564;2023-04-29T08:18:35;99536.81;;;27.01;33.55
25084;BME280;13075;55.682;37.564;2023-04-29T08:21:01;99542.91;;;26.44;34.56
25084;BME280;13075;55.682;37.564;2023-04-29T08:23:28;99543.44;;;27.36;34.52
25084;BME280;13075;55.682;37.564;2023-04-29T08:25:54;99550.91;;;25.25;36.38
25084;BME280;13075;55.682;37.564;2023-04-29T08:28:20;99556.03;;;24.18;37.14
25084;BME280;13075;55.682;37.564;2023-04-29T08:30:46;99560.56;;;22.62;39.96
25084;BME280;13075;55.682;37.564;2023-04-29T08:33:11;99558.59;;;21.01;42.38
25084;BME280;13075;55.682;37.564;2023-04-29T08:35:37;99561.13;;;20.14;48.05
25084;BME280;13075;55.682;37.564;2023-04-29T08:38:06;99550.97;;;21.03;44.97
25084;BME280;13075;55.682;37.564;2023-04-29T08:40:35;99555.16;;;20.54;46.76
25084;BME280;13075;55.682;37.564;2023-04-29T08:43:02;99551.56;;;19.70;45.83
25084;BME280;13075;55.682;37.564;2023-04-29T08:45:27;99540.75;;;21.31;44.05
25084;BME280;13075;55.682;37.564;2023-04-29T08:47:54;99547.03;;;21.92;43.01
25084;BME280;13075;55.682;37.564;2023-04-29T08:50:20;99543.22;;;23.02;40.93
25084;BME280;13075;55.682;37.564;2023-04-29T08:52:46;99546.09;;;22.57;41.02
25084;BME280;13075;55.682;37.564;2023-04-29T08:55:12;99551.84;;;22.55;40.40
25084;BME280;13075;55.682;37.564;2023-04-29T08:57:37;99552.69;;;22.41;42.22
25084;BME280;13075;55.682;37.564;2023-04-29T09:00:04;99551.69;;;22.95;40.71
25084;BME280;13075;55.682;37.564;2023-04-29T09:02:30;99548.22;;;22.75;40.39
25084;BME280;13075;55.682;37.564;2023-04-29T09:05:08;99557.00;;;22.67;41.91
25084;BME280;13075;55.682;37.564;2023-04-29T09:07:35;99564.75;;;21.99;44.06
25084;BME280;13075;55.682;37.564;2023-04-29T09:10:05;99554.63;;;22.20;40.94
25084;BME280;13075;55.682;37.564;2023-04-29T09:12:34;99555.19;;;22.12;41.66
25084;BME280;13075;55.682;37.564;2023-04-29T09:15:00;99556.25;;;21.40;42.40
25084;BME280;13075;55.682;37.564;2023-04-29T09:17:39;99559.69;;;21.05;42.69
25084;BME280;13075;55.682;37.564;2023-04-29T09:22:56;99582.56;;;18.99;44.28
25084;BME280;13075;55.682;37.564;2023-04-29T09:25:22;99590.59;;;18.89;44.80
25084;BME280;13075;55.682;37.564;2023-04-29T09:27:47;99596.59;;;18.36;46.85
25084;BME280;13075;55.682;37.564;2023-04-29T09:30:13;99586.50;;;17.93;46.78
25084;BME280;13075;55.682;37.564;2023-04-29T09:32:41;99589.88;;;18.55;46.77
25084;BME280;13075;55.682;37.564;2023-04-29T09:37:45;99582.38;;;19.32;45.43
25084;BME280;13075;55.682;37.564;2023-04-29T09:40:29;99584.56;;;19.57;45.00
25084;BME280;13075;55.682;37.564;2023-04-29T09:42:55;99592.31;;;19.21;44.58
25084;BME280;13075;55.682;37.564;2023-04-29T09:45:37;99595.34;;;19.25;43.76
25084;BME280;13075;55.682;37.564;2023-04-29T09:48:04;99594.06;;;19.59;44.85
25084;BME280;13075;55.682;37.564;2023-04-29T09:50:33;99592.13;;;19.81;41.29
25084;BME280;13075;55.682;37.564;2023-04-29T09:53:01;99596.94;;;20.43;39.57
25084;BME280;13075;55.682;37.564;2023-04-29T09:55:27;99597.94;;;20.79;40.48
25084;BME280;13075;55.682;37.564;2023-04-29T09:57:53;99602.00;;;21.43;39.89
25084;BME280;13075;55.682;37.564;2023-04-29T10:00:19;99609.13;;;21.69;38.83
25084;BME280;13075;55.682;37.564;2023-04-29T10:02:45;99600.75;;;20.47;39.88
25084;BME280;13075;55.682;37.564;2023-04-29T10:05:12;99617.28;;;20.04;39.81
25084;BME280;13075;55.682;37.564;2023-04-29T10:07:38;99618.00;;;19.62;41.60
25084;BME280;13075;55.682;37.564;2023-04-29T10:10:04;99610.53;;;20.11;39.41
25084;BME280;13075;55.682;37.564;2023-04-29T10:12:30;99605.09;;;20.43;39.66
25084;BME280;13075;55.682;37.564;2023-04-29T10:17:35;99610.19;;;20.81;39.42
25084;BME280;13075;55.682;37.564;2023-04-29T10:20:03;99601.63;;;21.09;38.33
25084;BME280;13075;55.682;37.564;2023-04-29T10:22:33;99615.72;;;22.04;38.58
25084;BME280;13075;55.682;37.564;2023-04-29T10:25:00;99614.03;;;21.78;38.17
25084;BME280;13075;55.682;37.564;2023-04-29T10:27:26;99622.84;;;21.07;38.11
25084;BME280;13075;55.682;37.564;2023-04-29T10:29:54;99620.44;;;20.64;38.65
25084;BME280;13075;55.682;37.564;2023-04-29T10:32:21;99629.91;;;20.20;38.63
25084;BME280;13075;55.682;37.564;2023-04-29T10:34:46;99624.53;;;19.61;38.95
25084;BME280;13075;55.682;37.564;2023-04-29T10:37:12;99636.38;;;19.82;41.20
25084;BME280;13075;55.682;37.564;2023-04-29T10:39:51;99642.09;;;20.17;40.17
25084;BME280;13075;55.682;37.564;2023-04-29T10:50:27;99650.25;;;20.17;40.14
25084;BME280;13075;55.682;37.564;2023-04-29T10:52:55;99651.91;;;19.86;40.55
25084;BME280;13075;55.682;37.564;2023-04-29T10:55:22;99652.41;;;19.57;39.92
25084;BME280;13075;55.682;37.564;2023-04-29T10:57:47;99650.41;;;19.47;40.00
25084;BME280;13075;55.682;37.564;2023-04-29T11:00:26;99653.59;;;18.79;40.67
25084;BME280;13075;55.682;37.564;2023-04-29T11:02:55;99659.22;;;18.73;42.95
25084;BME280;13075;55.682;37.564;2023-04-29T11:05:30;99669.06;;;19.00;41.38
25084;BME280;13075;55.682;37.564;2023-04-29T11:08:12;99658.19;;;19.39;41.06
25084;BME280;13075;55.682;37.564;2023-04-29T11:10:41;99672.84;;;19.91;40.39
25084;BME280;13075;55.682;37.564;2023-04-29T11:13:23;99670.06;;;20.44;38.58
25084;BME280;13075;55.682;37.564;2023-04-29T11:15:50;99669.53;;;20.16;40.17
25084;BME280;13075;55.682;37.564;2023-04-29T11:18:16;99662.34;;;21.20;38.06
25084;BME280;13075;55.682;37.564;2023-04-29T11:23:26;99666.03;;;20.52;36.81
25084;BME280;13075;55.682;37.564;2023-04-29T11:25:51;99669.97;;;20.71;37.30
25084;BME280;13075;55.682;37.564;2023-04-29T11:28:17;99659.97;;;20.82;36.94
25084;BME280;13075;55.682;37.564;2023-04-29T11:30:42;99671.31;;;21.10;36.14
25084;BME280;13075;55.682;37.564;2023-04-29T11:33:09;99664.88;;;20.85;35.87
25084;BME280;13075;55.682;37.564;2023-04-29T11:35:34;99663.25;;;20.84;36.06
25084;BME280;13075;55.682;37.564;2023-04-29T11:38:03;99669.28;;;20.17;38.11
25084;BME280;13075;55.682;37.564;2023-04-29T11:40:30;99664.81;;;20.70;37.45
25084;BME280;13075;55.682;37.564;2023-04-29T11:42:58;99672.00;;;20.17;37.88
25084;BME280;13075;55.682;37.564;2023-04-29T11:45:23;99653.03;;;20.59;37.58
25084;BME280;13075;55.682;37.564;2023-04-29T11:47:49;99658.97;;;20.19;37.08
25084;BME280;13075;55.682;37.564;2023-04-29T11:50:15;99663.72;;;19.75;36.99
25084;BME280;13075;55.682;37.564;2023-04-29T11:52:47;99665.56;;;19.70;36.34
25084;BME280;13075;55.682;37.564;2023-04-29T11:55:13;99664.63;;;20.13;37.58
25084;BME280;13075;55.682;37.564;2023-04-29T11:57:39;99661.56;;;19.77;36.84
25084;BME280;13075;55.682;37.564;2023-04-29T12:00:07;99660.00;;;20.13;37.36
25084;BME280;13075;55.682;37.564;2023-04-29T12:02:33;99658.16;;;19.87;39.12
25084;BME280;13075;55.682;37.564;2023-04-29T12:04:59;99651.41;;;19.63;37.22
25084;BME280;13075;55.682;37.564;2023-04-29T12:07:25;99647.44;;;19.27;38.06
25084;BME280;13075;55.682;37.564;2023-04-29T12:09:50;99658.69;;;19.14;39.45
25084;BME280;13075;55.682;37.564;2023-04-29T12:12:16;99656.66;;;19.48;38.62
25084;BME280;13075;55.682;37.564;2023-04-29T12:14:41;99661.13;;;19.15;38.51
25084;BME280;13075;55.682;37.564;2023-04-29T12:17:10;99660.44;;;19.25;39.36
25084;BME280;13075;55.682;37.564;2023-04-29T12:19:36;99660.50;;;19.30;38.98
25084;BME280;13075;55.682;37.564;2023-04-29T12:22:03;99662.75;;;18.95;37.83
25084;BME280;13075;55.682;37.564;2023-04-29T12:24:33;99664.47;;;19.01;38.20
25084;BME280;13075;55.682;37.564;2023-04-29T12:26:59;99654.00;;;19.31;37.94
25084;BME280;13075;55.682;37.564;2023-04-29T12:29:25;99654.25;;;19.29;38.65
25084;BME280;13075;55.682;37.564;2023-04-29T12:31:50;99650.53;;;19.14;36.64
25084;BME280;13075;55.682;37.564;2023-04-29T12:34:16;99649.53;;;19.20;37.18
25084;BME280;13075;55.682;37.564;2023-04-29T12:36:42;99656.22;;;18.91;38.18
25084;BME280;13075;55.682;37.564;2023-04-29T12:39:11;99657.16;;;19.01;37.55
25084;BME280;13075;55.682;37.564;2023-04-29T12:41:40;99653.75;;;19.11;38.67
25084;BME280;13075;55.682;37.564;2023-04-29T12:44:06;99655.03;;;19.25;39.16
25084;BME280;13075;55.682;37.564;2023-04-29T12:46:38;99655.81;;;19.25;36.06
25084;BME280;13075;55.682;37.564;2023-04-29T12:49:04;99660.56;;;19.35;36.16
25084;BME280;13075;55.682;37.564;2023-04-29T12:51:33;99660.91;;;19.17;35.75
25084;BME280;13075;55.682;37.564;2023-04-29T12:54:01;99657.53;;;19.32;37.22
25084;BME280;13075;55.682;37.564;2023-04-29T12:56:36;99662.44;;;19.56;36.89
25084;BME280;13075;55.682;37.564;2023-04-29T12:59:06;99660.50;;;19.52;37.23
25084;BME280;13075;55.682;37.564;2023-04-29T13:01:31;99657.28;;;19.11;38.01
25084;BME280;13075;55.682;37.564;2023-04-29T13:03:57;99659.44;;;18.88;37.32
25084;BME280;13075;55.682;37.564;2023-04-29T13:06:23;99645.84;;;19.31;36.18
25084;BME280;13075;55.682;37.564;2023-04-29T13:08:48;99648.28;;;19.06;37.13
25084;BME280;13075;55.682;37.564;2023-04-29T13:11:15;99644.03;;;18.93;37.99
25084;BME280;13075;55.682;37.564;2023-04-29T13:13:41;99662.84;;;18.45;38.08
25084;BME280;13075;55.682;37.564;2023-04-29T13:16:07;99655.56;;;18.29;36.06
25084;BME280;13075;55.682;37.564;2023-04-29T13:18:33;99651.66;;;18.75;35.03
25084;BME280;13075;55.682;37.564;2023-04-29T13:20:59;99645.00;;;19.04;36.20
25084;BME280;13075;55.682;37.564;2023-04-29T13:23:25;99643.22;;;19.14;36.29
25084;BME280;13075;55.682;37.564;2023-04-29T13:25:50;99640.69;;;19.08;37.24